sensor_id;sensor_type;location;lat;lon;timestamp;P1;durP1;ratioP1;P2;durP2;ratioP2
63406;SDS011;49543;45.892;10.838;2023-06-24T05:40:38;3.08;;;1.98;;
63406;SDS011;49543;45.892;10.838;2023-06-24T05:43:03;2.53;;;1.90;;
63406;SDS011;49543;45.892;10.838;2023-06-24T05:45:29;1.90;;;1.60;;
63406;SDS011;49543;45.892;10.838;2023-06-24T05:47:54;2.65;;;1.85;;
63406;SDS011;49543;45.892;10.838;2023-06-24T05:50:20;1.60;;;1.50;;
63406;SDS011;49543;45.892;10.838;2023-06-24T05:52:45;2.10;;;1.90;;
63406;SDS011;49543;45.892;10.838;2023-06-24T05:55:11;3.10;;;1.80;;
63406;SDS011;49543;45.892;10.838;2023-06-24T05:57:38;2.47;;;1.63;;
63406;SDS011;49543;45.892;10.838;2023-06-24T06:00:04;2.00;;;1.60;;
63406;SDS011;49543;45.892;10.838;2023-06-24T19:17:56;4.20;;;2.85;;
63406;SDS011;49543;45.892;10.838;2023-06-24T19:20:22;2.88;;;2.30;;
63406;SDS011;49543;45.892;10.838;2023-06-24T19:22:47;2.63;;;2.42;;
63406;SDS011;49543;45.892;10.838;2023-06-24T19:25:13;5.25;;;2.50;;
63406;SDS011;49543;45.892;10.838;2023-06-24T19:27:39;3.40;;;2.55;;
63406;SDS011;49543;45.892;10.838;2023-06-24T19:30:05;3.28;;;2.60;;
63406;SDS011;49543;45.892;10.838;2023-06-24T19:32:31;3.72;;;2.78;;
63406;SDS011;49543;45.892;10.838;2023-06-24T19:34:57;7.30;;;2.78;;
63406;SDS011;49543;45.892;10.838;2023-06-24T19:37:26;4.03;;;2.28;;
63406;SDS011;49543;45.892;10.838;2023-06-24T19:39:52;3.08;;;2.38;;
63406;SDS011;49543;45.892;10.838;2023-06-24T19:42:17;2.80;;;2.60;;
63406;SDS011;49543;45.892;10.838;2023-06-24T19:44:43;3.83;;;2.50;;
63406;SDS011;49543;45.892;10.838;2023-06-24T19:47:08;3.45;;;2.58;;
63406;SDS011;49543;45.892;10.838;2023-06-24T19:49:37;3.42;;;2.55;;
63406;SDS011;49543;45.892;10.838;2023-06-24T19:52:03;3.83;;;2.55;;
63406;SDS011;49543;45.892;10.838;2023-06-24T19:54:29;3.00;;;2.42;;
63406;SDS011;49543;45.892;10.838;2023-06-24T19:56:54;4.78;;;2.65;;
63406;SDS011;49543;45.892;10.838;2023-06-24T19:59:20;3.25;;;2.38;;
63406;SDS011;49543;45.892;10.838;2023-06-24T20:01:45;3.92;;;2.47;;
63406;SDS011;49543;45.892;10.838;2023-06-24T20:04:10;3.63;;;2.53;;
63406;SDS011;49543;45.892;10.838;2023-06-24T20:06:36;4.78;;;2.53;;
63406;SDS011;49543;45.892;10.838;2023-06-24T20:09:01;3.38;;;2.83;;
63406;SDS011;49543;45.892;10.838;2023-06-24T20:11:27;3.00;;;2.30;;
63406;SDS011;49543;45.892;10.838;2023-06-24T20:13:52;3.42;;;2.55;;
63406;SDS011;49543;45.892;10.838;2023-06-24T20:16:18;4.35;;;3.05;;
63406;SDS011;49543;45.892;10.838;2023-06-24T20:18:43;3.30;;;2.65;;
63406;SDS011;49543;45.892;10.838;2023-06-24T20:21:08;3.67;;;2.60;;
63406;SDS011;49543;45.892;10.838;2023-06-24T20:23:38;3.50;;;2.40;;
63406;SDS011;49543;45.892;10.838;2023-06-24T20:26:04;2.70;;;2.50;;
63406;SDS011;49543;45.892;10.838;2023-06-24T20:28:30;3.70;;;2.50;;
63406;SDS011;49543;45.892;10.838;2023-06-24T20:30:55;2.80;;;2.58;;
63406;SDS011;49543;45.892;10.838;2023-06-24T20:33:27;4.68;;;2.90;;
63406;SDS011;49543;45.892;10.838;2023-06-24T20:35:53;3.28;;;2.65;;
63406;SDS011;49543;45.892;10.838;2023-06-24T20:38:19;3.80;;;2.40;;
63406;SDS011;49543;45.892;10.838;2023-06-24T20:40:44;3.20;;;2.90;;
63406;SDS011;49543;45.892;10.838;2023-06-24T20:43:09;4.00;;;2.80;;
63406;SDS011;49543;45.892;10.838;2023-06-24T20:45:35;5.03;;;2.80;;
